Time;durP1;ratioP1;P1;durP2;ratioP2;P2;SDS_P1;SDS_P2;PMS_P1;PMS_P2;Temp;Humidity;BMP_temperature;BMP_pressure;BME280_temperature;BME280_humidity;BME280_pressure;Samples;Min_cycle;Max_cycle;Signal;HPM_P1;HPM_P2
2021/12/30 00:01:06;;;;;;;;;;;8.40;99.90;;;;;;6122922;23;20234;-82
2021/12/30 00:03:31;;;;;;;;;;;8.60;99.90;;;;;;6147162;23;20341;-81
2021/12/30 00:05:58;;;;;;;;;;;8.30;99.90;;;;;;6146731;23;19921;-82
2021/12/30 00:08:23;;;;;;;;;;;8.30;99.90;;;;;;6147941;23;19921;-83
2021/12/30 00:10:50;;;;;;;;;;;8.30;99.90;;;;;;6122623;23;19947;-83
2021/12/30 00:13:16;;;;;;;;;;;8.30;99.90;;;;;;6121707;23;19924;-82
2021/12/30 00:15:41;;;;;;;;;;;8.30;99.90;;;;;;6147708;23;19921;-82
2021/12/30 00:18:08;;;;;;;;;;;8.30;99.90;;;;;;6122815;23;19952;-82
2021/12/30 00:20:33;;;;;;;;;;;8.20;99.90;;;;;;6146730;23;20348;-83
2021/12/30 00:23:02;;;;;;;;;;;8.30;99.90;;;;;;6148307;23;20094;-82
2021/12/30 00:25:28;;;;;;;;;;;8.40;99.90;;;;;;6145573;23;20321;-81
2021/12/30 00:27:54;;;;;;;;;;;8.20;99.90;;;;;;6149356;23;19921;-82
2021/12/30 00:30:20;;;;;;;;;;;8.20;99.90;;;;;;6148777;23;19927;-82
2021/12/30 00:32:45;;;;;;;;;;;8.20;99.90;;;;;;6146715;23;20207;-82
2021/12/30 00:35:11;;;;;;;;;;;8.80;99.90;;;;;;6146069;23;19931;-82
2021/12/30 00:37:37;;;;;;;;;;;8.20;99.90;;;;;;6148803;23;19931;-83
2021/12/30 00:40:03;;;;;;;;;;;8.20;99.90;;;;;;6148579;23;19921;-83
2021/12/30 00:42:28;;;;;;;;;;;8.20;99.90;;;;;;6146259;23;20522;-82
2021/12/30 00:44:54;;;;;;;;;;;8.20;99.90;;;;;;6147017;23;19920;-83
2021/12/30 00:47:19;;;;;;;;;;;8.20;99.90;;;;;;6143793;23;20010;-82
2021/12/30 00:49:45;;;;;;;;;;;8.20;99.90;;;;;;6147247;23;19931;-82
2021/12/30 00:52:10;;;;;;;;;;;8.20;99.90;;;;;;6147750;23;19939;-83
2021/12/30 00:54:36;;;;;;;;;;;8.20;99.90;;;;;;6147030;23;20428;-82
2021/12/30 00:57:02;;;;;;;;;;;8.20;99.90;;;;;;6122391;23;20331;-82
2021/12/30 00:59:27;;;;;;;;;;;8.20;99.90;;;;;;6147758;23;19920;-82
2021/12/30 01:01:53;;;;;;;;;;;8.10;99.90;;;;;;6146341;23;19924;-82
2021/12/30 01:04:20;;;;;;;;;;;8.10;99.90;;;;;;6117760;23;20360;-82
2021/12/30 01:06:46;;;;;;;;;;;8.20;99.90;;;;;;6122330;23;19999;-82
2021/12/30 01:09:11;;;;;;;;;;;8.20;99.90;;;;;;6122897;23;19928;-81
2021/12/30 01:11:37;;;;;;;;;;;8.20;99.90;;;;;;6149673;23;20004;-82
2021/12/30 01:14:15;;;;;;;;;;;8.20;99.90;;;;;;6150033;23;19924;-83
2021/12/30 01:16:42;;;;;;;;;;;8.20;99.90;;;;;;6123949;23;19936;-82
2021/12/30 01:19:23;;;;;;;;;;;8.10;99.90;;;;;;6121489;23;20292;-82
2021/12/30 01:21:50;;;;;;;;;;;8.10;99.90;;;;;;6147543;23;19928;-82
2021/12/30 01:24:16;;;;;;;;;;;8.10;99.90;;;;;;6148470;23;19946;-82
2021/12/30 01:26:41;;;;;;;;;;;8.10;99.90;;;;;;6120494;23;20314;-82
2021/12/30 01:29:07;;;;;;;;;;;8.10;99.90;;;;;;6123992;23;19956;-81
2021/12/30 01:31:32;;;;;;;;;;;8.10;99.90;;;;;;6124492;23;19920;-83
2021/12/30 01:33:58;;;;;;;;;;;8.10;99.90;;;;;;6123442;23;20400;-83
2021/12/30 01:36:26;;;;;;;;;;;8.10;99.90;;;;;;6123533;23;19920;-82
2021/12/30 01:38:52;;;;;;;;;;;8.10;99.90;;;;;;6149009;23;20300;-82
2021/12/30 01:41:18;;;;;;;;;;;8.00;99.90;;;;;;6148887;23;19921;-83
2021/12/30 01:43:43;;;;;;;;;;;8.00;99.90;;;;;;6148464;23;19956;-82
2021/12/30 01:46:09;;;;;;;;;;;8.10;99.90;;;;;;6149443;23;19931;-82
2021/12/30 01:48:35;;;;;;;;;;;8.00;99.90;;;;;;6148162;23;20006;-81
2021/12/30 01:51:01;;;;;;;;;;;8.00;99.90;;;;;;6148405;23;19928;-82
2021/12/30 01:53:27;;;;;;;;;;;8.00;99.90;;;;;;6148612;23;19924;-81
2021/12/30 01:55:52;;;;;;;;;;;8.00;99.90;;;;;;6123972;23;19995;-82
2021/12/30 01:58:18;;;;;;;;;;;8.00;99.90;;;;;;6145186;23;19924;-82
2021/12/30 02:00:45;;;;;;;;;;;8.00;99.90;;;;;;6148487;23;19924;-82
2021/12/30 02:03:11;;;;;;;;;;;7.90;99.90;;;;;;6146603;23;20003;-82
2021/12/30 02:05:38;;;;;;;;;;;7.90;99.90;;;;;;6147402;23;19928;-82
2021/12/30 02:08:08;;;;;;;;;;;7.90;99.90;;;;;;6121959;23;19991;-82
2021/12/30 02:10:33;;;;;;;;;;;7.90;99.90;;;;;;6147797;23;20230;-83
2021/12/30 02:12:59;;;;;;;;;;;7.80;99.90;;;;;;6147587;23;19930;-82
2021/12/30 02:15:24;;;;;;;;;;;7.80;99.90;;;;;;6123811;23;20301;-83
2021/12/30 02:17:51;;;;;;;;;;;7.80;99.90;;;;;;6147754;23;19920;-82
2021/12/30 02:20:37;;;;;;;;;;;7.40;99.90;;;;;;6147554;23;19924;-83
2021/12/30 02:23:04;;;;;;;;;;;7.80;99.90;;;;;;6124144;23;20424;-83
2021/12/30 02:25:29;;;;;;;;;;;7.80;99.90;;;;;;6146265;23;20192;-83
2021/12/30 02:27:55;;;;;;;;;;;7.80;99.90;;;;;;6123792;23;20063;-82
2021/12/30 02:30:21;;;;;;;;;;;7.80;99.90;;;;;;6123415;23;19921;-85
2021/12/30 02:32:46;;;;;;;;;;;7.80;99.90;;;;;;6146590;23;20261;-83
2021/12/30 02:35:12;;;;;;;;;;;7.80;99.90;;;;;;6123356;23;19936;-83
2021/12/30 02:37:37;;;;;;;;;;;7.80;99.90;;;;;;6124177;23;20008;-83
2021/12/30 02:40:04;;;;;;;;;;;7.80;99.90;;;;;;6146652;23;19928;-83
2021/12/30 02:42:29;;;;;;;;;;;7.80;99.90;;;;;;6148895;23;20377;-82
2021/12/30 02:44:55;;;;;;;;;;;7.80;99.90;;;;;;6148530;23;19991;-84
2021/12/30 02:47:20;;;;;;;;;;;7.80;99.90;;;;;;6147891;23;19924;-83
2021/12/30 02:49:46;;;;;;;;;;;7.70;99.90;;;;;;6147466;23;19946;-84
2021/12/30 02:52:12;;;;;;;;;;;7.70;99.90;;;;;;6123973;23;19928;-84
2021/12/30 02:54:41;;;;;;;;;;;7.80;99.90;;;;;;6146617;23;19991;-83
2021/12/30 02:57:07;;;;;;;;;;;7.80;99.90;;;;;;6124144;23;19931;-84
2021/12/30 02:59:32;;;;;;;;;;;7.80;99.90;;;;;;6121796;23;19944;-83
2021/12/30 03:01:58;;;;;;;;;;;7.80;99.90;;;;;;6122652;23;20321;-83
2021/12/30 03:04:23;;;;;;;;;;;7.80;99.90;;;;;;6122614;23;20252;-83
2021/12/30 03:06:52;;;;;;;;;;;7.80;99.90;;;;;;6146356;23;19927;-84
2021/12/30 03:09:18;;;;;;;;;;;7.80;99.90;;;;;;6145886;23;19993;-84
2021/12/30 03:11:43;;;;;;;;;;;7.80;99.90;;;;;;6148020;23;19988;-84
2021/12/30 03:14:09;;;;;;;;;;;7.80;99.90;;;;;;6146131;23;19927;-84
2021/12/30 03:16:37;;;;;;;;;;;7.80;99.90;;;;;;6147660;23;19931;-85
2021/12/30 03:19:04;;;;;;;;;;;7.80;99.90;;;;;;6118445;23;20278;-83
2021/12/30 03:21:29;;;;;;;;;;;7.80;99.90;;;;;;6147216;23;20462;-84
2021/12/30 03:23:57;;;;;;;;;;;7.80;99.90;;;;;;6148678;23;19956;-82
2021/12/30 03:26:23;;;;;;;;;;;7.80;99.90;;;;;;6122446;23;19932;-83
2021/12/30 03:28:49;;;;;;;;;;;7.80;99.90;;;;;;6145772;23;19925;-82
2021/12/30 03:31:16;;;;;;;;;;;7.90;99.90;;;;;;6146225;23;19924;-81
2021/12/30 03:33:42;;;;;;;;;;;7.80;99.90;;;;;;6145474;23;20012;-82
2021/12/30 03:36:08;;;;;;;;;;;7.90;99.90;;;;;;6122702;23;20237;-83
2021/12/30 03:38:35;;;;;;;;;;;7.90;99.90;;;;;;6145464;23;19968;-82
2021/12/30 03:41:01;;;;;;;;;;;7.90;99.90;;;;;;6149533;23;19942;-83
2021/12/30 03:43:27;;;;;;;;;;;8.00;99.90;;;;;;6121376;23;20000;-84
2021/12/30 03:45:53;;;;;;;;;;;8.00;99.90;;;;;;6146943;23;19943;-84
2021/12/30 03:48:18;;;;;;;;;;;8.00;99.90;;;;;;6123588;23;19921;-82
2021/12/30 03:50:44;;;;;;;;;;;8.10;99.90;;;;;;6145809;23;19927;-84
2021/12/30 03:53:14;;;;;;;;;;;8.10;99.90;;;;;;6147994;23;19920;-83
2021/12/30 03:55:39;;;;;;;;;;;8.20;99.90;;;;;;6147131;23;20637;-83
2021/12/30 03:58:05;;;;;;;;;;;8.20;99.90;;;;;;6146986;23;19920;-84
2021/12/30 04:00:31;;;;;;;;;;;8.20;99.90;;;;;;6147809;23;19928;-82
2021/12/30 04:02:57;;;;;;;;;;;8.20;99.90;;;;;;6147796;23;20019;-83
2021/12/30 04:05:24;;;;;;;;;;;8.20;99.90;;;;;;6145938;23;19972;-82
2021/12/30 04:07:49;;;;;;;;;;;8.30;99.90;;;;;;6144580;23;19956;-83
2021/12/30 04:10:16;;;;;;;;;;;8.30;99.90;;;;;;6144409;23;19947;-81
2021/12/30 04:12:43;;;;;;;;;;;8.30;99.90;;;;;;6147295;23;19924;-81
2021/12/30 04:15:09;;;;;;;;;;;8.30;99.90;;;;;;6146648;23;19992;-82
2021/12/30 04:17:35;;;;;;;;;;;8.30;99.90;;;;;;6147217;23;19927;-83
2021/12/30 04:20:00;;;;;;;;;;;8.30;99.90;;;;;;6146905;23;19920;-83
2021/12/30 04:22:26;;;;;;;;;;;8.30;99.90;;;;;;6122741;23;19924;-82
2021/12/30 04:24:51;;;;;;;;;;;8.30;99.90;;;;;;6121693;23;19979;-82
2021/12/30 04:27:17;;;;;;;;;;;8.30;99.90;;;;;;6121652;23;19999;-82
2021/12/30 04:29:42;;;;;;;;;;;8.40;99.90;;;;;;6122080;23;19999;-82
2021/12/30 04:32:08;;;;;;;;;;;8.40;99.90;;;;;;6119860;23;19925;-83
2021/12/30 04:34:34;;;;;;;;;;;8.40;99.90;;;;;;6119950;23;19948;-83
2021/12/30 04:36:59;;;;;;;;;;;8.40;99.90;;;;;;6144063;23;20002;-82
2021/12/30 04:39:28;;;;;;;;;;;8.40;99.90;;;;;;6146527;23;19925;-84
2021/12/30 04:41:54;;;;;;;;;;;8.60;99.90;;;;;;6141297;23;20019;-82
2021/12/30 04:44:21;;;;;;;;;;;8.50;99.90;;;;;;6144896;23;20343;-83
2021/12/30 04:46:46;;;;;;;;;;;8.50;99.90;;;;;;6150828;23;19956;-83
2021/12/30 04:49:12;;;;;;;;;;;8.60;99.90;;;;;;6150862;23;19921;-82
2021/12/30 04:51:37;;;;;;;;;;;8.60;99.90;;;;;;6148861;23;19920;-83
2021/12/30 04:54:03;;;;;;;;;;;8.60;99.90;;;;;;6121639;23;19995;-83
2021/12/30 04:56:28;;;;;;;;;;;8.70;99.90;;;;;;6123702;23;20035;-82
2021/12/30 04:58:54;;;;;;;;;;;8.70;99.90;;;;;;6147497;23;20028;-82
2021/12/30 05:01:20;;;;;;;;;;;8.70;99.90;;;;;;6150352;23;20004;-82
2021/12/30 05:03:45;;;;;;;;;;;8.80;99.90;;;;;;6148669;23;19927;-82
2021/12/30 05:06:11;;;;;;;;;;;8.80;99.90;;;;;;6151332;23;19921;-83
2021/12/30 05:08:36;;;;;;;;;;;8.90;99.90;;;;;;6150063;23;20322;-82
2021/12/30 05:11:04;;;;;;;;;;;9.00;99.90;;;;;;6148859;23;19921;-81
2021/12/30 05:13:30;;;;;;;;;;;9.00;99.90;;;;;;6149368;23;20309;-83
2021/12/30 05:15:55;;;;;;;;;;;9.00;99.90;;;;;;6147998;23;20000;-84
2021/12/30 05:18:29;;;;;;;;;;;9.10;99.90;;;;;;6149849;23;19920;-84
2021/12/30 05:20:55;;;;;;;;;;;9.20;99.90;;;;;;6146666;23;19928;-83
2021/12/30 05:23:20;;;;;;;;;;;9.20;99.90;;;;;;6121432;23;20739;-83
2021/12/30 05:25:46;;;;;;;;;;;9.30;99.90;;;;;;6146701;23;19948;-83
2021/12/30 05:28:11;;;;;;;;;;;9.30;99.90;;;;;;6148174;23;19920;-83
2021/12/30 05:30:37;;;;;;;;;;;9.40;99.90;;;;;;6123749;23;19975;-83
2021/12/30 05:33:02;;;;;;;;;;;9.50;99.90;;;;;;6122600;23;20489;-83
2021/12/30 05:35:28;;;;;;;;;;;9.50;99.90;;;;;;6148291;23;20007;-83
2021/12/30 05:37:53;;;;;;;;;;;9.60;99.90;;;;;;6148486;23;19999;-83
2021/12/30 05:40:20;;;;;;;;;;;9.60;99.90;;;;;;6147001;23;20015;-84
2021/12/30 05:42:46;;;;;;;;;;;9.70;99.90;;;;;;6121821;23;19972;-83
2021/12/30 05:45:14;;;;;;;;;;;9.80;99.90;;;;;;6123868;23;19920;-82
2021/12/30 05:47:41;;;;;;;;;;;9.80;99.90;;;;;;6148996;23;19920;-82
2021/12/30 05:50:07;;;;;;;;;;;9.90;99.90;;;;;;6148268;23;19925;-82
2021/12/30 05:52:33;;;;;;;;;;;9.90;99.90;;;;;;6147537;23;20258;-82
2021/12/30 05:54:59;;;;;;;;;;;9.90;99.90;;;;;;6148036;23;20027;-83
2021/12/30 05:57:27;;;;;;;;;;;10.00;99.90;;;;;;6147734;23;19924;-83
2021/12/30 05:59:53;;;;;;;;;;;10.00;99.90;;;;;;6149355;23;19920;-82
2021/12/30 06:02:18;;;;;;;;;;;10.00;99.90;;;;;;6147784;23;20417;-83
2021/12/30 06:04:44;;;;;;;;;;;10.10;99.90;;;;;;6121176;23;19931;-83
2021/12/30 06:07:09;;;;;;;;;;;10.10;99.90;;;;;;6147578;23;19936;-83
2021/12/30 06:09:35;;;;;;;;;;;10.10;99.90;;;;;;6121121;23;19928;-83
2021/12/30 06:12:00;;;;;;;;;;;10.20;99.90;;;;;;6149565;23;20011;-82
2021/12/30 06:14:26;;;;;;;;;;;10.30;99.90;;;;;;6145704;23;19971;-82
2021/12/30 06:16:51;;;;;;;;;;;10.20;99.90;;;;;;6147616;23;19975;-83
2021/12/30 06:19:17;;;;;;;;;;;10.20;99.90;;;;;;6147242;23;20217;-82
2021/12/30 06:21:42;;;;;;;;;;;10.30;99.90;;;;;;6148514;23;19947;-83
2021/12/30 06:24:08;;;;;;;;;;;10.20;99.90;;;;;;6144915;23;19921;-82
2021/12/30 06:26:33;;;;;;;;;;;10.30;99.90;;;;;;6147080;23;19921;-82
2021/12/30 06:28:59;;;;;;;;;;;10.30;99.90;;;;;;6145974;23;19921;-81
2021/12/30 06:31:24;;;;;;;;;;;10.40;99.90;;;;;;6122590;23;20538;-82
2021/12/30 06:33:50;;;;;;;;;;;10.30;99.90;;;;;;6123398;23;19924;-82
2021/12/30 06:36:17;;;;;;;;;;;10.40;99.90;;;;;;6145369;23;20264;-83
2021/12/30 06:38:43;;;;;;;;;;;10.40;99.90;;;;;;6147846;23;19925;-84
2021/12/30 06:41:08;;;;;;;;;;;10.50;99.90;;;;;;6146781;23;19920;-83
2021/12/30 06:43:35;;;;;;;;;;;10.50;99.90;;;;;;6147666;23;20039;-82
2021/12/30 06:46:04;;;;;;;;;;;10.50;99.90;;;;;;6147822;23;19920;-83
2021/12/30 06:48:30;;;;;;;;;;;10.50;99.90;;;;;;6147758;23;19924;-82
2021/12/30 06:50:56;;;;;;;;;;;10.50;99.90;;;;;;6148789;23;19920;-82
2021/12/30 06:53:22;;;;;;;;;;;10.50;99.90;;;;;;6147376;23;19916;-82
2021/12/30 06:55:48;;;;;;;;;;;10.50;99.90;;;;;;6123155;23;19971;-86
2021/12/30 06:58:14;;;;;;;;;;;10.50;99.90;;;;;;6147956;23;19963;-81
2021/12/30 07:00:40;;;;;;;;;;;10.50;99.90;;;;;;6149186;23;19920;-80
2021/12/30 07:03:05;;;;;;;;;;;10.60;99.90;;;;;;6123622;23;19997;-83
2021/12/30 07:05:31;;;;;;;;;;;10.60;99.90;;;;;;6148239;23;19963;-84
2021/12/30 07:07:57;;;;;;;;;;;10.60;99.90;;;;;;6144918;23;20384;-81
2021/12/30 07:10:23;;;;;;;;;;;10.60;99.90;;;;;;6148084;23;19995;-82
2021/12/30 07:12:48;;;;;;;;;;;10.70;99.90;;;;;;6148329;23;19995;-83
2021/12/30 07:15:14;;;;;;;;;;;10.70;99.90;;;;;;6147753;23;20020;-83
2021/12/30 07:17:40;;;;;;;;;;;10.70;99.90;;;;;;6147876;23;19920;-83
2021/12/30 07:20:06;;;;;;;;;;;10.70;99.90;;;;;;6145663;23;20364;-81
2021/12/30 07:22:32;;;;;;;;;;;10.70;99.90;;;;;;6147249;23;19920;-81
2021/12/30 07:24:57;;;;;;;;;;;10.80;99.90;;;;;;6147402;23;19975;-85
2021/12/30 07:27:23;;;;;;;;;;;10.80;99.90;;;;;;6147004;23;19929;-83
2021/12/30 07:29:48;;;;;;;;;;;10.80;99.90;;;;;;6147921;23;20326;-85
2021/12/30 07:32:14;;;;;;;;;;;10.80;99.90;;;;;;6147785;23;19921;-84
2021/12/30 07:34:39;;;;;;;;;;;10.80;99.90;;;;;;6147607;23;20241;-83
2021/12/30 07:37:05;;;;;;;;;;;10.80;99.90;;;;;;6148321;23;20381;-83
2021/12/30 07:39:30;;;;;;;;;;;10.90;99.90;;;;;;6147552;23;19955;-85
2021/12/30 07:41:56;;;;;;;;;;;10.90;99.90;;;;;;6146956;23;20369;-86
2021/12/30 07:44:21;;;;;;;;;;;10.90;99.90;;;;;;6146823;23;19927;-82
2021/12/30 07:46:47;;;;;;;;;;;10.90;99.90;;;;;;6122010;23;20003;-82
2021/12/30 07:49:12;;;;;;;;;;;10.90;99.90;;;;;;6146846;23;20235;-86
2021/12/30 07:51:38;;;;;;;;;;;10.90;99.90;;;;;;6148483;23;19921;-84
2021/12/30 07:54:03;;;;;;;;;;;10.90;99.90;;;;;;6146852;23;19916;-85
2021/12/30 07:56:29;;;;;;;;;;;10.90;99.90;;;;;;6144323;23;20008;-86
2021/12/30 07:58:54;;;;;;;;;;;11.00;99.90;;;;;;6147998;23;19959;-87
2021/12/30 08:01:20;;;;;;;;;;;11.00;99.90;;;;;;6148431;23;19920;-84
2021/12/30 08:03:45;;;;;;;;;;;11.00;99.90;;;;;;6145753;23;20117;-86
2021/12/30 08:06:11;;;;;;;;;;;11.00;99.90;;;;;;6146889;23;19986;-85
2021/12/30 08:08:36;;;;;;;;;;;11.00;99.90;;;;;;6124454;23;19931;-86
2021/12/30 08:11:02;;;;;;;;;;;11.00;99.90;;;;;;6146303;23;19927;-85
2021/12/30 08:13:27;;;;;;;;;;;11.00;99.90;;;;;;6148174;23;19921;-83
2021/12/30 08:15:53;;;;;;;;;;;11.00;99.90;;;;;;6148546;23;19940;-84
2021/12/30 08:18:19;;;;;;;;;;;11.10;99.90;;;;;;6146246;23;19940;-88
2021/12/30 08:20:45;;;;;;;;;;;11.10;99.90;;;;;;6148654;23;19925;-88
2021/12/30 08:23:10;;;;;;;;;;;11.10;99.90;;;;;;6149049;23;19954;-86
2021/12/30 08:25:36;;;;;;;;;;;11.10;99.90;;;;;;6148645;23;19932;-85
2021/12/30 08:28:01;;;;;;;;;;;11.20;99.90;;;;;;6149060;23;19924;-88
2021/12/30 08:30:27;;;;;;;;;;;11.20;99.90;;;;;;6150620;23;20231;-87
2021/12/30 08:32:53;;;;;;;;;;;11.20;99.90;;;;;;6147866;23;19944;-85
2021/12/30 08:35:21;;;;;;;;;;;11.20;99.90;;;;;;6148473;23;19920;-86
2021/12/30 08:37:46;;;;;;;;;;;11.20;99.90;;;;;;6121527;23;20048;-85
2021/12/30 08:40:13;;;;;;;;;;;11.20;99.90;;;;;;6149510;23;19920;-86
2021/12/30 08:42:39;;;;;;;;;;;11.20;99.90;;;;;;6125360;23;19921;-85
2021/12/30 08:45:05;;;;;;;;;;;11.20;99.90;;;;;;6149429;23;19982;-87
2021/12/30 08:47:31;;;;;;;;;;;11.30;99.90;;;;;;6127656;23;20007;-85
2021/12/30 08:49:57;;;;;;;;;;;11.30;99.90;;;;;;6151742;23;19999;-86
2021/12/30 08:52:24;;;;;;;;;;;11.30;99.90;;;;;;6158573;23;19920;-87
2021/12/30 08:54:50;;;;;;;;;;;11.30;99.90;;;;;;6153813;23;19931;-89
2021/12/30 08:57:17;;;;;;;;;;;11.30;99.90;;;;;;6151721;23;19925;-87
2021/12/30 08:59:43;;;;;;;;;;;11.30;99.90;;;;;;6150231;23;19921;-85
2021/12/30 09:02:09;;;;;;;;;;;11.30;99.90;;;;;;6151297;23;19921;-84
2021/12/30 09:04:35;;;;;;;;;;;11.30;99.90;;;;;;6148837;23;19917;-87
2021/12/30 09:07:01;;;;;;;;;;;11.30;99.90;;;;;;6149464;23;20000;-85
2021/12/30 09:09:27;;;;;;;;;;;11.40;99.90;;;;;;6150078;23;20407;-84
2021/12/30 09:11:53;;;;;;;;;;;11.40;99.90;;;;;;6147074;23;19921;-88
2021/12/30 09:14:19;;;;;;;;;;;11.40;99.90;;;;;;6147952;23;19972;-85
2021/12/30 09:16:44;;;;;;;;;;;11.40;99.90;;;;;;6149637;23;19975;-87
2021/12/30 09:19:10;;;;;;;;;;;11.40;99.90;;;;;;6150366;23;20326;-85
2021/12/30 09:21:39;;;;;;;;;;;11.40;99.90;;;;;;6147658;23;20226;-88
2021/12/30 09:24:05;;;;;;;;;;;11.40;99.90;;;;;;6123192;23;19996;-85
2021/12/30 09:26:31;;;;;;;;;;;11.40;99.90;;;;;;6148307;23;19924;-84
2021/12/30 09:28:56;;;;;;;;;;;11.40;99.90;;;;;;6147384;23;19952;-85
2021/12/30 09:31:22;;;;;;;;;;;11.40;99.90;;;;;;6149237;23;19963;-84
2021/12/30 09:33:47;;;;;;;;;;;11.40;99.90;;;;;;6124464;23;19924;-84
2021/12/30 09:36:13;;;;;;;;;;;11.40;99.90;;;;;;6148698;23;19971;-85
2021/12/30 09:38:38;;;;;;;;;;;11.40;99.90;;;;;;6123617;23;20353;-85
2021/12/30 09:41:04;;;;;;;;;;;11.30;99.90;;;;;;6124621;23;19921;-84
2021/12/30 09:43:30;;;;;;;;;;;11.40;99.90;;;;;;6149035;23;19982;-85
2021/12/30 09:45:55;;;;;;;;;;;11.30;99.90;;;;;;6149415;23;20011;-85
2021/12/30 09:48:21;;;;;;;;;;;11.30;99.90;;;;;;6150867;23;20376;-86
2021/12/30 09:50:49;;;;;;;;;;;11.40;99.90;;;;;;6147456;23;20494;-86
2021/12/30 09:53:17;;;;;;;;;;;11.30;99.90;;;;;;6122609;23;20506;-89
2021/12/30 09:55:42;;;;;;;;;;;11.30;99.90;;;;;;6147211;23;19928;-85
2021/12/30 09:58:08;;;;;;;;;;;11.30;99.90;;;;;;6151013;23;20426;-89
2021/12/30 10:00:33;;;;;;;;;;;11.40;99.90;;;;;;6125610;23;20475;-86
2021/12/30 10:02:59;;;;;;;;;;;11.30;99.90;;;;;;6123417;23;20198;-87
2021/12/30 10:05:27;;;;;;;;;;;11.40;99.90;;;;;;6149000;23;19924;-86
2021/12/30 10:08:14;;;;;;;;;;;11.40;99.90;;;;;;6151008;23;20007;-85
2021/12/30 10:10:40;;;;;;;;;;;11.40;99.90;;;;;;6146411;23;19974;-87
2021/12/30 10:13:24;;;;;;;;;;;11.50;99.90;;;;;;6153860;23;19924;-87
2021/12/30 10:15:54;;;;;;;;;;;11.40;99.90;;;;;;6124135;23;19979;-88
2021/12/30 10:18:20;;;;;;;;;;;11.40;99.90;;;;;;6149124;23;19969;-86
2021/12/30 10:20:47;;;;;;;;;;;11.40;99.90;;;;;;6149893;23;19932;-86
2021/12/30 10:23:17;;;;;;;;;;;11.40;99.90;;;;;;6148723;23;19962;-85
2021/12/30 10:25:47;;;;;;;;;;;11.40;99.90;;;;;;6147623;23;19983;-87
2021/12/30 10:28:17;;;;;;;;;;;11.40;99.90;;;;;;6148677;23;19925;-84
2021/12/30 10:30:42;;;;;;;;;;;11.40;99.90;;;;;;6150211;23;19933;-87
2021/12/30 10:33:09;;;;;;;;;;;11.40;99.90;;;;;;6149476;23;19996;-82
2021/12/30 10:35:35;;;;;;;;;;;11.40;99.90;;;;;;6122244;23;19990;-84
2021/12/30 10:38:09;;;;;;;;;;;11.40;99.90;;;;;;6148493;23;20055;-86
2021/12/30 10:40:37;;;;;;;;;;;11.40;99.90;;;;;;6145386;23;19920;-87
2021/12/30 10:43:13;;;;;;;;;;;11.30;99.90;;;;;;6148426;23;19991;-88
2021/12/30 10:45:39;;;;;;;;;;;11.50;99.90;;;;;;6148207;23;19933;-83
2021/12/30 10:48:08;;;;;;;;;;;11.40;99.90;;;;;;6153658;23;19921;-93
2021/12/30 10:50:36;;;;;;;;;;;11.40;99.90;;;;;;6149666;23;19959;-89
2021/12/30 10:53:02;;;;;;;;;;;11.40;99.90;;;;;;6152158;23;19921;-92
2021/12/30 10:55:32;;;;;;;;;;;11.40;99.90;;;;;;6151640;23;19927;-90
2021/12/30 10:57:59;;;;;;;;;;;11.40;99.90;;;;;;6124503;23;19920;-91
2021/12/30 11:00:32;;;;;;;;;;;11.40;99.90;;;;;;6125289;23;19927;-87
2021/12/30 11:03:16;;;;;;;;;;;11.40;99.90;;;;;;6147669;23;19928;-86
2021/12/30 11:06:02;;;;;;;;;;;11.40;99.90;;;;;;6124650;23;20453;-88
2021/12/30 11:08:29;;;;;;;;;;;11.40;99.90;;;;;;6125657;23;20395;-89
2021/12/30 11:11:21;;;;;;;;;;;11.40;99.90;;;;;;6154822;23;19928;-92
2021/12/30 11:14:16;;;;;;;;;;;11.40;99.90;;;;;;6150514;23;19924;-94
2021/12/30 11:16:58;;;;;;;;;;;11.50;99.90;;;;;;6100572;23;19920;-89
2021/12/30 11:19:26;;;;;;;;;;;11.50;99.90;;;;;;6149228;23;20203;-90
2021/12/30 11:22:02;;;;;;;;;;;12.20;99.90;;;;;;6126884;23;20317;-91
2021/12/30 11:24:29;;;;;;;;;;;11.40;99.90;;;;;;6152128;23;20326;-90
2021/12/30 11:26:55;;;;;;;;;;;11.40;99.90;;;;;;6151986;23;19948;-88
2021/12/30 11:29:22;;;;;;;;;;;12.20;99.90;;;;;;6152564;23;19921;-87
2021/12/30 11:31:47;;;;;;;;;;;12.10;99.90;;;;;;6149399;23;19920;-91
2021/12/30 11:34:20;;;;;;;;;;;11.50;99.90;;;;;;6150779;23;19923;-90
2021/12/30 11:36:46;;;;;;;;;;;11.40;99.90;;;;;;6149966;23;19924;-87
2021/12/30 11:39:16;;;;;;;;;;;11.40;99.90;;;;;;6149113;23;20257;-91
2021/12/30 11:41:49;;;;;;;;;;;11.40;99.90;;;;;;6125049;23;19920;-89
2021/12/30 11:44:35;;;;;;;;;;;11.40;99.90;;;;;;6147816;23;19925;-87
2021/12/30 11:47:02;;;;;;;;;;;11.40;99.90;;;;;;6104717;23;19932;-89
2021/12/30 11:49:47;;;;;;;;;;;11.40;99.90;;;;;;6148615;23;19999;-86
2021/12/30 11:52:13;;;;;;;;;;;11.40;99.90;;;;;;6124760;23;19924;-91
2021/12/30 11:54:41;;;;;;;;;;;11.50;99.90;;;;;;6125063;23;19939;-89
2021/12/30 11:57:31;;;;;;;;;;;10.50;99.90;;;;;;6153261;23;19991;-92
2021/12/30 12:00:20;;;;;;;;;;;11.40;99.90;;;;;;6149579;23;20300;-87
2021/12/30 12:02:48;;;;;;;;;;;11.40;99.90;;;;;;6122946;23;19925;-92
2021/12/30 12:05:38;;;;;;;;;;;11.80;99.90;;;;;;6148425;23;19925;-83
2021/12/30 12:08:05;;;;;;;;;;;11.40;99.90;;;;;;6123445;23;19925;-87
2021/12/30 12:10:30;;;;;;;;;;;11.40;99.90;;;;;;6148908;23;19924;-86
2021/12/30 12:12:56;;;;;;;;;;;11.40;99.90;;;;;;6123150;23;20024;-94
2021/12/30 12:15:24;;;;;;;;;;;11.40;99.90;;;;;;6148107;23;19920;-84
2021/12/30 12:17:50;;;;;;;;;;;11.40;99.90;;;;;;6146542;23;19940;-84
2021/12/30 12:20:28;;;;;;;;;;;11.40;99.90;;;;;;6149104;23;19925;-83
2021/12/30 12:22:56;;;;;;;;;;;11.50;99.90;;;;;;6123822;23;20039;-87
2021/12/30 12:25:26;;;;;;;;;;;11.40;99.90;;;;;;6148021;23;20277;-85
2021/12/30 12:27:53;;;;;;;;;;;11.60;99.90;;;;;;6148076;23;19921;-86
2021/12/30 12:30:21;;;;;;;;;;;11.50;99.90;;;;;;6146490;23;19927;-87
2021/12/30 12:32:47;;;;;;;;;;;11.50;99.90;;;;;;6152222;23;19970;-86
2021/12/30 12:35:15;;;;;;;;;;;11.50;99.90;;;;;;6150862;23;19960;-88
2021/12/30 12:37:41;;;;;;;;;;;11.50;99.90;;;;;;6128746;23;19944;-90
2021/12/30 12:40:25;;;;;;;;;;;11.50;99.90;;;;;;6153736;23;19928;-87
2021/12/30 12:42:50;;;;;;;;;;;11.60;99.90;;;;;;6130533;23;19932;-91
2021/12/30 12:45:16;;;;;;;;;;;11.60;99.90;;;;;;6151131;23;19924;-86
2021/12/30 12:47:42;;;;;;;;;;;11.70;99.90;;;;;;6152276;23;19920;-87
2021/12/30 12:50:08;;;;;;;;;;;11.70;99.90;;;;;;6127522;23;20424;-85
2021/12/30 12:52:40;;;;;;;;;;;11.60;99.90;;;;;;6147420;23;19991;-85
2021/12/30 12:55:06;;;;;;;;;;;11.70;99.90;;;;;;6121046;23;19983;-84
2021/12/30 12:57:49;;;;;;;;;;;11.70;99.90;;;;;;6147649;23;20751;-83
2021/12/30 13:00:14;;;;;;;;;;;12.20;99.90;;;;;;6146554;23;19924;-86
2021/12/30 13:02:46;;;;;;;;;;;11.70;99.90;;;;;;6121654;23;20241;-84
2021/12/30 13:05:15;;;;;;;;;;;11.70;99.90;;;;;;6146937;23;20031;-86
2021/12/30 13:07:43;;;;;;;;;;;11.70;99.90;;;;;;6123209;23;19927;-85
2021/12/30 13:10:16;;;;;;;;;;;12.20;99.90;;;;;;6152015;23;19987;-84
2021/12/30 13:12:43;;;;;;;;;;;11.70;99.90;;;;;;6148725;23;19921;-83
2021/12/30 13:15:12;;;;;;;;;;;12.10;99.90;;;;;;6124883;23;20285;-83
2021/12/30 13:17:37;;;;;;;;;;;11.70;99.90;;;;;;6150161;23;19960;-85
2021/12/30 13:20:03;;;;;;;;;;;11.80;99.90;;;;;;6124854;23;19920;-86
2021/12/30 13:22:29;;;;;;;;;;;11.70;99.90;;;;;;6150933;23;19990;-86
2021/12/30 13:24:59;;;;;;;;;;;11.70;99.90;;;;;;6150450;23;20003;-85
2021/12/30 13:27:33;;;;;;;;;;;11.70;99.90;;;;;;6149757;23;19927;-83
2021/12/30 13:30:05;;;;;;;;;;;11.70;99.90;;;;;;6124567;23;19932;-85
2021/12/30 13:32:35;;;;;;;;;;;11.70;99.90;;;;;;6125810;23;19955;-84
2021/12/30 13:35:03;;;;;;;;;;;11.70;99.90;;;;;;6146636;23;19924;-84
2021/12/30 13:37:35;;;;;;;;;;;11.70;99.90;;;;;;6124505;23;19947;-85
2021/12/30 13:40:01;;;;;;;;;;;11.70;99.90;;;;;;6147382;23;19924;-85
2021/12/30 13:42:28;;;;;;;;;;;11.60;99.90;;;;;;6148968;23;20310;-88
2021/12/30 13:44:57;;;;;;;;;;;11.70;99.90;;;;;;6148597;23;19944;-85
2021/12/30 13:47:39;;;;;;;;;;;12.40;99.90;;;;;;6146093;23;19921;-86
2021/12/30 13:50:14;;;;;;;;;;;11.70;99.90;;;;;;6149252;23;20285;-88
2021/12/30 13:52:42;;;;;;;;;;;11.60;99.90;;;;;;6123932;23;19990;-88
2021/12/30 13:55:07;;;;;;;;;;;11.70;99.90;;;;;;6145699;23;19921;-87
2021/12/30 13:57:36;;;;;;;;;;;11.90;99.90;;;;;;6147787;23;19924;-87
2021/12/30 14:00:02;;;;;;;;;;;11.70;99.90;;;;;;6145864;23;19921;-84
2021/12/30 14:02:28;;;;;;;;;;;11.70;99.90;;;;;;6122364;23;19920;-84
2021/12/30 14:05:02;;;;;;;;;;;13.20;99.90;;;;;;6146153;23;19921;-84
2021/12/30 14:07:37;;;;;;;;;;;11.70;99.90;;;;;;6119782;23;19920;-85
2021/12/30 14:10:15;;;;;;;;;;;11.60;99.90;;;;;;6145330;23;19983;-82
2021/12/30 14:12:59;;;;;;;;;;;11.60;99.90;;;;;;6147538;23;19921;-90
2021/12/30 14:15:30;;;;;;;;;;;11.70;99.90;;;;;;6120280;23;19921;-84
2021/12/30 14:17:56;;;;;;;;;;;11.60;99.90;;;;;;6146131;23;20016;-83
2021/12/30 14:20:22;;;;;;;;;;;11.60;99.90;;;;;;6144921;23;19921;-85
2021/12/30 14:22:48;;;;;;;;;;;11.60;99.90;;;;;;6146445;23;20008;-86
2021/12/30 14:25:24;;;;;;;;;;;11.60;99.90;;;;;;6147712;23;20214;-86